Time;durP1;ratioP1;P1;durP2;ratioP2;P2;SDS_P1;SDS_P2;PMS_P1;PMS_P2;Temp;Humidity;BMP_temperature;BMP_pressure;BME280_temperature;BME280_humidity;BME280_pressure;Samples;Min_cycle;Max_cycle;Signal;HPM_P1;HPM_P2
2021/11/24 00:01:39;;;;;;;27.60;11.60;;;;;;;-0.50;57.33;99885.96;24403;1356;3026592;-71
2021/11/24 00:04:08;;;;;;;23.80;11.40;;;;;;;-0.44;56.95;99885.55;24408;1357;3054346;-71
2021/11/24 00:06:37;;;;;;;25.10;11.50;;;;;;;-0.29;56.88;99890.59;24441;1356;3026626;-75
2021/11/24 00:09:06;;;;;;;26.90;11.70;;;;;;;-0.23;56.46;99891.91;24442;1356;3053457;-71
2021/11/24 00:11:35;;;;;;;25.70;11.30;;;;;;;-0.31;56.25;99895.77;24435;1356;3027185;-65
2021/11/24 00:14:04;;;;;;;21.20;10.60;;;;;;;-0.37;56.37;99895.31;24444;1356;3051910;-75
2021/11/24 00:16:49;;;;;;;;;;;;;;;-0.31;56.34;99890.95;24425;1358;3054078;-70
2021/11/24 00:19:18;;;;;;;18.10;9.00;;;;;;;-0.32;55.91;99892.36;24460;1350;3026895;-74
2021/11/24 00:21:47;;;;;;;20.30;10.70;;;;;;;-0.36;56.19;99889.63;24489;1356;3051983;-69
2021/11/24 00:24:16;;;;;;;25.00;11.80;;;;;;;-0.34;56.57;99893.92;24458;1356;3026555;-71
2021/11/24 00:26:45;;;;;;;24.20;11.30;;;;;;;-0.37;56.40;99896.69;24404;1357;3026470;-72
2021/11/24 00:29:19;;;;;;;21.40;10.70;;;;;;;-0.34;56.26;99898.73;24437;1356;3054474;-69
2021/11/24 00:31:49;;;;;;;21.30;11.30;;;;;;;-0.36;56.41;99903.05;24407;1357;3027082;-69
2021/11/24 00:34:18;;;;;;;23.70;11.40;;;;;;;-0.28;56.62;99902.98;24423;1356;3026965;-74
2021/11/24 00:36:47;;;;;;;23.00;10.70;;;;;;;-0.26;56.21;99901.40;24465;1360;3055810;-71
2021/11/24 00:39:16;;;;;;;22.60;10.20;;;;;;;-0.19;56.41;99903.41;24471;1356;3026077;-69
2021/11/24 00:41:45;;;;;;;25.60;9.80;;;;;;;-0.17;55.41;99901.15;24414;1357;3048039;-68
2021/11/24 00:44:14;;;;;;;27.80;11.90;;;;;;;-0.24;55.70;99899.84;24421;1358;3026706;-71
2021/11/24 00:46:43;;;;;;;31.20;11.10;;;;;;;-0.25;55.87;99902.77;24375;1353;3066582;-76
2021/11/24 00:49:12;;;;;;;21.10;10.50;;;;;;;-0.31;55.78;99901.11;24451;1357;3027181;-70
2021/11/24 00:51:41;;;;;;;30.70;10.50;;;;;;;-0.35;55.90;99903.21;24443;1356;3028582;-73
2021/11/24 00:54:16;;;;;;;26.20;10.30;;;;;;;-0.36;56.02;99902.53;24465;1362;3071529;-71
2021/11/24 00:56:45;;;;;;;26.10;11.20;;;;;;;-0.45;56.39;99903.64;24385;1357;3026806;-66
2021/11/24 00:59:15;;;;;;;25.60;10.30;;;;;;;-0.44;56.32;99910.34;24411;1356;3026972;-67
2021/11/24 01:01:44;;;;;;;22.30;10.00;;;;;;;-0.36;56.28;99911.48;24438;1363;3070979;-65
2021/11/24 01:04:13;;;;;;;29.80;11.30;;;;;;;-0.36;56.03;99904.61;24387;1360;3026860;-75
2021/11/24 01:06:43;;;;;;;23.50;10.10;;;;;;;-0.40;56.31;99911.17;24457;1356;3026580;-67
2021/11/24 01:09:12;;;;;;;25.70;9.60;;;;;;;-0.33;56.07;99909.90;24420;1361;3026075;-72
2021/11/24 01:11:41;;;;;;;22.90;9.60;;;;;;;-0.33;56.34;99915.23;24421;1356;3047742;-69
2021/11/24 01:14:11;;;;;;;21.80;9.90;;;;;;;-0.31;56.09;99914.72;24527;1356;3026321;-73
2021/11/24 01:16:42;;;;;;;24.70;11.00;;;;;;;-0.31;56.27;99915.74;24426;1360;3027181;-65
2021/11/24 01:19:12;;;;;;;18.50;9.20;;;;;;;-0.31;56.03;99913.85;24406;1357;3051724;-65
2021/11/24 01:21:42;;;;;;;22.40;9.70;;;;;;;-0.36;56.40;99916.30;24422;1356;3026899;-65
2021/11/24 01:24:11;;;;;;;22.00;9.80;;;;;;;-0.33;56.63;99916.95;24408;1357;3026504;-70
2021/11/24 01:26:40;;;;;;;28.80;10.10;;;;;;;-0.29;56.02;99915.89;24435;1357;3052197;-71
2021/11/24 01:29:09;;;;;;;24.90;10.80;;;;;;;-0.31;55.80;99918.16;24418;1358;3026153;-71
2021/11/24 01:31:39;;;;;;;23.40;8.60;;;;;;;-0.25;55.84;99925.84;24425;1356;3071119;-66
2021/11/24 01:34:08;;;;;;;31.30;9.70;;;;;;;-0.22;55.73;99927.02;24428;1357;3027173;-72
2021/11/24 01:36:37;;;;;;;27.50;10.90;;;;;;;-0.25;55.83;99930.33;24436;1363;3051353;-69
2021/11/24 01:39:06;;;;;;;18.60;9.10;;;;;;;-0.31;55.81;99930.21;24546;1357;3027904;-64
2021/11/24 01:41:35;;;;;;;23.00;9.10;;;;;;;-0.33;55.65;99932.29;24606;1360;3052279;-71
2021/11/24 01:44:04;;;;;;;23.20;10.00;;;;;;;-0.35;55.79;99931.95;24563;1360;3026741;-69
2021/11/24 01:46:34;;;;;;;24.10;10.20;;;;;;;-0.33;56.02;99932.27;24571;1358;3026049;-67
2021/11/24 01:49:03;;;;;;;22.30;9.80;;;;;;;-0.37;55.84;99930.09;24558;1360;3026530;-68
2021/11/24 01:51:32;;;;;;;21.30;10.20;;;;;;;-0.44;56.06;99930.64;24550;1357;3053162;-69
2021/11/24 01:54:01;;;;;;;19.50;9.00;;;;;;;-0.54;55.91;99936.59;24510;1357;3026547;-70
2021/11/24 01:56:31;;;;;;;18.60;7.90;;;;;;;-0.53;55.69;99934.34;24484;1357;3055515;-70
2021/11/24 01:59:00;;;;;;;17.30;8.40;;;;;;;-0.54;55.73;99941.06;24497;1356;3026516;-63
2021/11/24 02:01:29;;;;;;;21.60;8.70;;;;;;;-0.61;55.69;99941.29;24444;1357;3049317;-72
2021/11/24 02:03:58;;;;;;;18.80;8.50;;;;;;;-0.69;55.94;99942.38;24455;1359;3026120;-65
2021/11/24 02:06:27;;;;;;;21.40;9.00;;;;;;;-0.66;56.08;99939.27;24468;1360;3059001;-73
2021/11/24 02:09:13;;;;;;;23.10;8.20;;;;;;;-0.64;56.11;99943.19;24401;1356;3052798;-68
2021/11/24 02:11:43;;;;;;;16.00;7.90;;;;;;;-0.66;56.02;99946.30;24453;1357;3026456;-67
2021/11/24 02:14:13;;;;;;;20.60;8.80;;;;;;;-0.68;56.08;99949.42;24409;1355;3027107;-69
2021/11/24 02:17:02;;;;;;;19.60;7.30;;;;;;;-0.75;55.97;99954.46;24393;1363;3071536;-70
2021/11/24 02:19:34;;;;;;;15.90;6.90;;;;;;;-0.75;55.97;99960.81;24380;1357;3026907;-74
2021/11/24 02:22:04;;;;;;;19.10;7.70;;;;;;;-0.79;55.76;99964.64;24495;1357;3027243;-66
2021/11/24 02:24:36;;;;;;;20.20;8.00;;;;;;;-0.81;56.05;99966.71;24484;1363;3027486;-72
2021/11/24 02:27:10;;;;;;;17.20;7.40;;;;;;;-0.91;56.09;99970.04;24420;1360;3026423;-75
2021/11/24 02:29:40;;;;;;;18.30;7.60;;;;;;;-0.88;56.48;99969.85;24386;1357;3052351;-69
2021/11/24 02:32:14;;;;;;;17.90;8.00;;;;;;;-0.85;56.33;99971.73;24419;1357;3026290;-71
2021/11/24 02:34:43;;;;;;;19.20;8.50;;;;;;;-0.87;56.24;99971.05;24450;1359;3026586;-73
2021/11/24 02:37:13;;;;;;;17.30;8.30;;;;;;;-0.92;56.62;99977.79;24379;1357;3026950;-68
2021/11/24 02:39:42;;;;;;;18.20;8.20;;;;;;;-0.91;56.64;99980.02;24438;1355;3051834;-65
2021/11/24 02:42:11;;;;;;;15.00;8.00;;;;;;;-0.93;56.46;99979.85;24471;1357;3027180;-67
2021/11/24 02:44:40;;;;;;;17.90;9.10;;;;;;;-0.89;56.73;99983.78;24391;1356;3052005;-70
2021/11/24 02:47:12;;;;;;;18.50;8.00;;;;;;;-0.87;56.31;99987.04;24384;1356;3026647;-72
2021/11/24 02:49:43;;;;;;;19.50;8.50;;;;;;;-0.92;56.10;99987.75;24434;1362;3057565;-66
2021/11/24 02:52:13;;;;;;;26.20;10.40;;;;;;;-0.92;56.40;99993.94;24414;1360;3026189;-63
2021/11/24 02:54:49;;;;;;;26.80;11.50;;;;;;;-0.95;56.30;99993.11;24410;1356;3029038;-73
2021/11/24 02:57:19;;;;;;;19.70;8.40;;;;;;;-0.93;56.19;99992.23;24418;1357;3059364;-69
2021/11/24 02:59:48;;;;;;;21.60;9.30;;;;;;;-0.97;55.98;99989.67;24423;1357;3026440;-67
2021/11/24 03:02:17;;;;;;;21.20;10.50;;;;;;;-0.97;56.05;99995.52;24401;1357;3026374;-75
2021/11/24 03:04:46;;;;;;;18.10;9.10;;;;;;;-0.98;55.95;99990.37;24459;1360;3058216;-74
2021/11/24 03:07:15;;;;;;;17.30;7.70;;;;;;;-1.01;55.73;99993.66;24376;1357;3027472;-68
2021/11/24 03:09:54;;;;;;;15.30;7.20;;;;;;;-1.00;55.61;99994.52;24415;1362;3054536;-70
2021/11/24 03:12:23;;;;;;;17.40;7.20;;;;;;;-1.01;55.46;99998.64;24433;1357;3026557;-67
2021/11/24 03:14:53;;;;;;;18.50;7.30;;;;;;;-1.01;55.20;99997.09;24407;1360;3055962;-69
2021/11/24 03:17:22;;;;;;;14.50;5.90;;;;;;;-1.06;55.13;100004.85;24465;1351;3025961;-74
2021/11/24 03:20:00;;;;;;;14.40;6.60;;;;;;;-1.06;55.29;100006.92;24458;1357;3051824;-67
2021/11/24 03:22:29;;;;;;;14.30;5.90;;;;;;;-1.01;55.44;100005.70;24412;1357;3026411;-69
2021/11/24 03:24:58;;;;;;;15.30;6.40;;;;;;;-1.03;55.35;100010.17;24449;1360;3068769;-67
2021/11/24 03:27:32;;;;;;;12.40;6.00;;;;;;;-1.05;55.24;100011.20;24404;1358;3026527;-69
2021/11/24 03:30:04;;;;;;;14.70;6.60;;;;;;;-1.09;55.07;100017.92;24442;1350;3052414;-73
2021/11/24 03:32:36;;;;;;;13.80;7.00;;;;;;;-1.19;55.32;100019.35;24430;1357;3054837;-73
2021/11/24 03:35:06;;;;;;;23.80;10.30;;;;;;;-1.11;55.32;100020.86;24478;1357;3027089;-66
2021/11/24 03:37:35;;;;;;;21.00;9.30;;;;;;;-1.14;55.24;100025.17;24437;1360;3054225;-68
2021/11/24 03:40:06;;;;;;;24.50;9.30;;;;;;;-1.26;55.76;100026.94;24428;1357;3026231;-64
2021/11/24 03:42:36;;;;;;;21.90;9.80;;;;;;;-1.19;55.96;100028.98;24455;1357;3026916;-66
2021/11/24 03:45:06;;;;;;;21.10;10.00;;;;;;;-1.15;55.92;100037.05;24384;1351;3026823;-71
2021/11/24 03:47:37;;;;;;;26.50;11.90;;;;;;;-1.13;55.80;100041.51;24460;1357;3026138;-69
2021/11/24 03:50:06;;;;;;;30.50;13.00;;;;;;;-1.17;55.65;100047.52;24408;1362;3028921;-68
2021/11/24 03:52:35;;;;;;;29.00;13.20;;;;;;;-1.28;55.53;100053.08;24418;1357;3051881;-75
2021/11/24 03:55:06;;;;;;;32.80;16.00;;;;;;;-1.45;56.21;100062.21;24376;1357;3027148;-71
2021/11/24 03:57:35;;;;;;;31.40;14.90;;;;;;;-1.59;56.84;100062.23;24423;1360;3029167;-67
2021/11/24 04:00:06;;;;;;;25.10;13.20;;;;;;;-1.58;57.20;100063.97;24452;1357;3029562;-74
2021/11/24 04:02:37;;;;;;;25.80;12.10;;;;;;;-1.63;57.21;100065.86;24412;1360;3052400;-68
2021/11/24 04:05:08;;;;;;;21.20;12.30;;;;;;;-1.62;57.25;100072.55;24488;1357;3026838;-66
2021/11/24 04:07:37;;;;;;;21.70;12.40;;;;;;;-1.65;57.19;100077.89;24472;1357;3027561;-72
2021/11/24 04:10:08;;;;;;;24.90;11.60;;;;;;;-1.65;57.70;100083.20;24397;1358;3026563;-65
2021/11/24 04:12:37;;;;;;;21.40;11.40;;;;;;;-1.69;57.60;100083.56;24403;1362;3029177;-72
2021/11/24 04:15:07;;;;;;;20.20;10.50;;;;;;;-1.63;57.66;100083.04;24475;1357;3027618;-65
2021/11/24 04:17:37;;;;;;;22.50;10.40;;;;;;;-1.58;57.87;100087.33;24402;1357;3026352;-71
2021/11/24 04:20:09;;;;;;;20.30;8.80;;;;;;;-1.60;57.92;100086.30;24415;1358;3027102;-69
2021/11/24 04:22:38;;;;;;;22.20;10.70;;;;;;;-1.60;58.11;100081.66;24377;1357;3030355;-67
2021/11/24 04:25:08;;;;;;;16.90;8.70;;;;;;;-1.59;57.96;100085.27;24428;1356;3027608;-71
2021/11/24 04:27:37;;;;;;;18.50;8.80;;;;;;;-1.56;57.66;100084.91;24416;1360;3052008;-72
2021/11/24 04:30:06;;;;;;;17.90;9.10;;;;;;;-1.57;57.65;100081.66;24582;1356;3028810;-70
2021/11/24 04:32:36;;;;;;;23.70;10.00;;;;;;;-1.52;57.84;100084.91;24502;1360;3057075;-70
2021/11/24 04:35:05;;;;;;;21.00;9.80;;;;;;;-1.50;57.70;100089.03;24416;1358;3027794;-72
2021/11/24 04:37:37;;;;;;;22.20;9.60;;;;;;;-1.46;57.77;100089.38;24494;1356;3051697;-72
2021/11/24 04:40:06;;;;;;;18.00;7.90;;;;;;;-1.48;57.71;100096.59;24504;1356;3027337;-68
2021/11/24 04:42:38;;;;;;;21.30;8.70;;;;;;;-1.53;58.03;100101.94;24444;1357;3027773;-72
2021/11/24 04:45:08;;;;;;;20.60;9.40;;;;;;;-1.53;57.83;100107.42;24479;1357;3026580;-69
2021/11/24 04:47:37;;;;;;;20.90;10.50;;;;;;;-1.58;58.13;100112.77;24431;1357;3030779;-73
2021/11/24 04:50:06;;;;;;;20.10;10.60;;;;;;;-1.57;58.06;100113.79;24400;1357;3027173;-72
2021/11/24 04:52:36;;;;;;;20.80;10.20;;;;;;;-1.54;58.29;100118.42;24416;1360;3056169;-71
2021/11/24 04:55:06;;;;;;;23.50;9.80;;;;;;;-1.58;58.34;100119.97;24422;1358;3026505;-68
2021/11/24 04:57:35;;;;;;;27.30;10.90;;;;;;;-1.65;58.64;100124.95;24489;1360;3026335;-71
2021/11/24 05:00:07;;;;;;;25.00;11.80;;;;;;;-1.79;59.37;100131.48;24484;1356;3026542;-73
2021/11/24 05:02:42;;;;;;;24.60;12.10;;;;;;;-1.93;59.99;100136.45;24438;1360;3051870;-70
2021/11/24 05:05:12;;;;;;;23.30;11.20;;;;;;;-2.03;60.19;100137.11;24497;1355;3026340;-74
2021/11/24 05:07:41;;;;;;;25.10;11.00;;;;;;;-2.22;60.79;100148.42;24506;1358;3030088;-73
2021/11/24 05:10:10;;;;;;;31.50;11.80;;;;;;;-2.32;61.45;100153.54;24435;1354;3026503;-68
2021/11/24 05:12:40;;;;;;;28.10;10.80;;;;;;;-2.42;61.63;100160.71;24503;1356;3071700;-67
2021/11/24 05:15:16;;;;;;;26.90;10.50;;;;;;;-2.48;61.70;100162.93;24543;1356;3026660;-73
2021/11/24 05:17:48;;;;;;;17.30;9.30;;;;;;;-2.44;61.44;100163.63;24442;1359;3052096;-70
2021/11/24 05:20:23;;;;;;;22.30;9.70;;;;;;;-2.41;61.23;100166.21;24454;1357;3050277;-71
2021/11/24 05:22:54;;;;;;;22.10;9.30;;;;;;;-2.35;61.14;100169.84;24435;1357;3026345;-72
2021/11/24 05:25:23;;;;;;;20.80;10.90;;;;;;;-2.39;61.02;100172.58;24438;1356;3026969;-74
2021/11/24 05:27:53;;;;;;;22.20;10.80;;;;;;;-2.41;60.75;100172.73;24436;1356;3026807;-75
2021/11/24 05:30:22;;;;;;;28.10;10.90;;;;;;;-2.42;60.48;100177.88;24416;1356;3062075;-70
2021/11/24 05:32:51;;;;;;;19.00;8.80;;;;;;;-2.36;60.82;100182.00;24440;1357;3026571;-73
2021/11/24 05:35:24;;;;;;;29.00;12.60;;;;;;;-2.27;60.48;100180.16;24407;1357;3051499;-67
2021/11/24 05:37:53;;;;;;;21.30;10.10;;;;;;;-2.14;60.17;100185.52;24447;1357;3026420;-74
2021/11/24 05:40:22;;;;;;;26.90;12.40;;;;;;;-2.07;60.18;100189.48;24448;1362;3026434;-68
2021/11/24 05:42:52;;;;;;;24.90;11.80;;;;;;;-1.96;60.32;100187.95;24405;1357;3055182;-72
2021/11/24 05:45:36;;;;;;;25.30;12.00;;;;;;;-1.91;60.41;100193.30;24735;1356;3028426;-69
2021/11/24 05:48:13;;;;;;;24.50;11.50;;;;;;;-1.89;60.87;100202.92;24631;1360;3052729;-69
2021/11/24 05:50:44;;;;;;;31.30;13.00;;;;;;;-1.82;60.68;100204.82;24477;1357;3053394;-70
2021/11/24 05:53:14;;;;;;;26.40;11.90;;;;;;;-1.75;60.56;100206.04;24426;1361;3026229;-72
2021/11/24 05:55:45;;;;;;;29.10;12.60;;;;;;;-1.64;60.08;100209.30;24438;1357;3026436;-75
2021/11/24 05:58:16;;;;;;;28.80;12.30;;;;;;;-1.66;60.16;100212.23;24415;1357;3027295;-68
2021/11/24 06:00:45;;;;;;;32.70;14.00;;;;;;;-1.65;60.32;100213.78;24486;1360;3029821;-71
2021/11/24 06:03:14;;;;;;;32.60;14.60;;;;;;;-1.54;60.16;100214.13;24479;1358;3026654;-68
2021/11/24 06:05:43;;;;;;;36.20;13.60;;;;;;;-1.46;60.22;100222.55;24404;1357;3030625;-70
2021/11/24 06:08:12;;;;;;;34.80;14.80;;;;;;;-1.42;60.36;100220.66;24431;1356;3051292;-71
2021/11/24 06:10:41;;;;;;;33.50;13.60;;;;;;;-1.35;59.93;100222.55;24416;1356;3026571;-70
2021/11/24 06:13:10;;;;;;;28.70;13.00;;;;;;;-1.35;59.67;100227.55;24468;1357;3048436;-74
2021/11/24 06:15:40;;;;;;;33.70;13.60;;;;;;;-1.27;59.58;100223.92;24435;1361;3026754;-79
2021/11/24 06:18:09;;;;;;;27.40;11.80;;;;;;;-1.19;59.31;100227.02;24435;1357;3027563;-75
2021/11/24 06:20:39;;;;;;;31.30;13.20;;;;;;;-1.11;58.93;100226.16;24510;1358;3047116;-75
2021/11/24 06:23:08;;;;;;;32.20;13.40;;;;;;;-1.16;58.96;100227.02;24449;1357;3026456;-71
2021/11/24 06:25:39;;;;;;;33.70;13.80;;;;;;;-1.03;58.83;100227.54;24495;1357;3026800;-73
2021/11/24 06:28:08;;;;;;;39.40;15.50;;;;;;;-0.99;58.70;100232.69;24507;1363;3029015;-77
2021/11/24 06:30:38;;;;;;;36.20;15.60;;;;;;;-0.94;58.73;100232.34;24262;1356;3026399;-70
2021/11/24 06:33:08;;;;;;;30.80;14.80;;;;;;;-0.91;58.54;100231.81;24465;1358;3027546;-73
2021/11/24 06:35:37;;;;;;;30.70;15.20;;;;;;;-0.83;58.71;100237.48;24438;1359;3028267;-68
2021/11/24 06:38:06;;;;;;;41.40;15.30;;;;;;;-0.75;58.43;100237.29;24447;1357;3049722;-71
2021/11/24 06:40:35;;;;;;;34.60;15.30;;;;;;;-0.66;58.29;100240.54;24555;1360;3029114;-68
2021/11/24 06:43:04;;;;;;;35.40;16.00;;;;;;;-0.65;57.94;100241.05;24592;1357;3059564;-67
2021/11/24 06:45:33;;;;;;;38.50;15.90;;;;;;;-0.70;58.00;100243.65;24652;1356;3026292;-72
2021/11/24 06:48:03;;;;;;;40.80;16.60;;;;;;;-0.66;57.72;100245.52;24641;1360;3054022;-67
2021/11/24 06:50:32;;;;;;;36.10;14.70;;;;;;;-0.66;57.68;100243.30;24572;1355;3026883;-70
2021/11/24 06:53:03;;;;;;;32.70;14.70;;;;;;;-0.53;57.09;100242.92;24640;1356;3026384;-75
2021/11/24 06:55:34;;;;;;;34.20;15.70;;;;;;;-0.38;56.31;100249.77;24548;1357;3026548;-70
2021/11/24 06:58:03;;;;;;;31.60;14.30;;;;;;;-0.34;55.87;100247.85;24582;1353;3027029;-69
2021/11/24 07:00:33;;;;;;;35.20;15.80;;;;;;;-0.30;55.73;100248.70;24647;1356;3026475;-75
2021/11/24 07:03:02;;;;;;;30.60;14.30;;;;;;;-0.20;55.89;100251.58;24455;1357;3027043;-73
2021/11/24 07:05:31;;;;;;;34.20;15.60;;;;;;;-0.11;55.21;100248.98;24490;1360;3050963;-78
2021/11/24 07:08:00;;;;;;;31.90;15.10;;;;;;;-0.10;55.10;100246.55;24530;1357;3027834;-70
2021/11/24 07:10:30;;;;;;;31.80;15.00;;;;;;;-0.03;54.40;100248.58;24513;1356;3026830;-75
2021/11/24 07:13:01;;;;;;;42.00;18.30;;;;;;;0.01;53.78;100254.94;24506;1356;3051618;-70
2021/11/24 07:15:32;;;;;;;32.50;14.10;;;;;;;-0.00;53.69;100259.94;24487;1357;3030578;-75
2021/11/24 07:18:01;;;;;;;30.70;14.50;;;;;;;0.06;52.63;100265.23;24509;1359;3029895;-68
2021/11/24 07:20:30;;;;;;;26.80;13.50;;;;;;;0.17;52.35;100270.02;24434;1354;3026169;-74
2021/11/24 07:23:00;;;;;;;30.90;13.80;;;;;;;0.22;52.31;100270.34;24478;1360;3071409;-74
2021/11/24 07:25:31;;;;;;;33.00;14.00;;;;;;;0.31;51.43;100272.02;24427;1357;3028200;-73
2021/11/24 07:28:00;;;;;;;29.10;13.00;;;;;;;0.43;51.72;100275.73;24427;1357;3027089;-72
2021/11/24 07:30:30;;;;;;;31.70;11.70;;;;;;;0.40;50.79;100280.75;24428;1358;3026489;-72
2021/11/24 07:32:59;;;;;;;27.70;11.90;;;;;;;0.44;50.31;100289.16;24416;1357;3027431;-77
2021/11/24 07:35:28;;;;;;;25.00;11.10;;;;;;;0.55;50.31;100292.71;24448;1363;3052933;-73
2021/11/24 07:37:57;;;;;;;26.80;10.30;;;;;;;0.50;49.63;100295.52;24380;1360;3026165;-74
2021/11/24 07:40:26;;;;;;;17.20;9.80;;;;;;;0.73;49.83;100298.47;24427;1359;3048712;-74
2021/11/24 07:42:55;;;;;;;18.90;10.10;;;;;;;0.79;48.95;100298.42;24484;1360;3026179;-71
2021/11/24 07:45:24;;;;;;;25.20;9.30;;;;;;;0.86;48.93;100296.12;24405;1357;3070925;-69
2021/11/24 07:47:53;;;;;;;14.20;7.00;;;;;;;0.81;48.03;100297.89;24476;1358;3026347;-69
2021/11/24 07:50:23;;;;;;;23.80;9.80;;;;;;;0.68;47.75;100303.48;24413;1357;3052998;-69
2021/11/24 07:52:52;;;;;;;18.80;9.30;;;;;;;0.52;48.42;100303.27;24417;1355;3026664;-66
2021/11/24 07:55:21;;;;;;;21.60;9.20;;;;;;;0.67;48.50;100304.02;24387;1357;3026904;-72
2021/11/24 07:57:50;;;;;;;25.60;10.20;;;;;;;0.68;48.22;100306.61;24419;1363;3051282;-75
2021/11/24 08:00:20;;;;;;;18.20;9.00;;;;;;;0.68;47.44;100303.16;24408;1358;3026496;-72
2021/11/24 08:02:49;;;;;;;26.40;11.20;;;;;;;0.56;47.49;100307.71;24437;1355;3028152;-69
2021/11/24 08:05:19;;;;;;;23.20;9.70;;;;;;;0.62;48.15;100310.77;24477;1360;3026327;-72
2021/11/24 08:07:48;;;;;;;17.90;8.00;;;;;;;0.70;47.16;100311.94;24439;1356;3070919;-74
2021/11/24 08:10:17;;;;;;;13.00;6.40;;;;;;;0.73;47.00;100310.02;24432;1356;3027005;-74
2021/11/24 08:12:46;;;;;;;13.00;5.80;;;;;;;0.61;46.93;100311.14;24443;1359;3050686;-73
2021/11/24 08:15:15;;;;;;;12.50;5.80;;;;;;;0.61;47.35;100311.98;24448;1360;3026367;-72
2021/11/24 08:17:45;;;;;;;16.20;7.30;;;;;;;0.76;47.42;100304.14;24398;1357;3026798;-70
2021/11/24 08:20:34;;;;;;;12.50;6.30;;;;;;;0.72;47.08;100301.91;24393;1357;3052559;-77
2021/11/24 08:23:04;;;;;;;18.50;6.80;;;;;;;0.67;47.05;100302.99;24517;1356;3026860;-75
2021/11/24 08:25:34;;;;;;;23.60;7.50;;;;;;;0.84;47.29;100304.77;24457;1356;3026182;-74
2021/11/24 08:28:04;;;;;;;22.30;8.30;;;;;;;0.95;46.84;100304.70;24449;1356;3051342;-77
2021/11/24 08:30:33;;;;;;;23.20;8.60;;;;;;;1.10;46.59;100307.16;24475;1357;3026493;-74
2021/11/24 08:33:02;;;;;;;19.90;8.50;;;;;;;1.19;46.13;100304.65;24440;1354;3046898;-76
2021/11/24 08:35:33;;;;;;;20.80;8.70;;;;;;;1.29;45.00;100302.85;24485;1357;3026669;-74
2021/11/24 08:38:02;;;;;;;22.00;10.00;;;;;;;1.32;45.10;100301.80;24462;1357;3026653;-68
2021/11/24 08:40:33;;;;;;;22.80;9.50;;;;;;;1.34;44.58;100305.56;24463;1357;3050675;-74
2021/11/24 08:43:02;;;;;;;17.50;9.20;;;;;;;1.10;44.89;100306.80;24458;1360;3028800;-75
2021/11/24 08:45:31;;;;;;;19.10;8.60;;;;;;;1.39;45.10;100303.96;24441;1357;3066789;-73
2021/11/24 08:48:02;;;;;;;20.30;7.00;;;;;;;1.56;44.29;100313.98;24412;1357;3026266;-70
2021/11/24 08:50:32;;;;;;;12.00;6.20;;;;;;;1.54;43.92;100316.08;24514;1359;3051968;-75
2021/11/24 08:53:01;;;;;;;15.40;5.70;;;;;;;1.44;43.46;100314.45;24491;1353;3026295;-70
2021/11/24 08:55:31;;;;;;;13.20;6.00;;;;;;;1.42;43.77;100315.00;24386;1356;3026634;-69
2021/11/24 08:58:00;;;;;;;15.40;6.60;;;;;;;1.44;44.00;100314.45;24412;1363;3054916;-73
2021/11/24 09:00:29;;;;;;;12.80;6.60;;;;;;;1.57;44.33;100315.02;24427;1356;3026164;-70
2021/11/24 09:02:58;;;;;;;13.40;6.70;;;;;;;1.67;44.46;100313.87;24469;1356;3055597;-71
2021/11/24 09:05:28;;;;;;;14.90;6.20;;;;;;;1.74;44.54;100315.53;24467;1357;3026343;-70
2021/11/24 09:07:58;;;;;;;13.00;6.10;;;;;;;1.63;44.08;100318.23;24436;1361;3027677;-72
2021/11/24 09:10:29;;;;;;;16.60;6.50;;;;;;;1.46;44.36;100314.08;24491;1356;3026922;-66
2021/11/24 09:12:59;;;;;;;24.80;7.80;;;;;;;1.60;44.55;100309.63;24480;1355;3027521;-71
2021/11/24 09:15:28;;;;;;;25.10;8.10;;;;;;;1.81;44.09;100312.86;24479;1356;3027469;-72
2021/11/24 09:17:57;;;;;;;21.30;7.20;;;;;;;1.91;43.68;100308.60;24459;1357;3026417;-71
2021/11/24 09:20:26;;;;;;;20.30;7.40;;;;;;;1.89;43.07;100310.35;24457;1363;3030126;-67
2021/11/24 09:22:56;;;;;;;19.90;7.10;;;;;;;1.79;43.78;100315.13;24390;1357;3053826;-71
2021/11/24 09:25:35;;;;;;;20.90;7.90;;;;;;;1.66;43.57;100310.27;24452;1356;3028605;-71
2021/11/24 09:28:13;;;;;;;19.20;7.40;;;;;;;1.69;43.71;100316.80;24414;1359;3052060;-73
2021/11/24 09:30:42;;;;;;;20.80;6.90;;;;;;;1.74;43.65;100323.13;24474;1356;3056061;-70
2021/11/24 09:33:11;;;;;;;21.70;7.90;;;;;;;1.79;43.43;100323.77;24449;1356;3026780;-76
2021/11/24 09:35:40;;;;;;;25.50;8.00;;;;;;;1.82;43.43;100323.90;24450;1356;3028638;-72
2021/11/24 09:38:18;;;;;;;21.20;8.10;;;;;;;1.91;42.92;100322.25;24454;1357;3055789;-72
2021/11/24 09:40:48;;;;;;;27.10;9.00;;;;;;;1.74;43.12;100322.27;24459;1357;3026463;-72
2021/11/24 09:43:17;;;;;;;20.70;7.50;;;;;;;1.98;42.30;100321.48;24442;1356;3027377;-65
2021/11/24 09:45:47;;;;;;;21.20;8.30;;;;;;;2.15;42.06;100322.30;24457;1356;3054723;-70
2021/11/24 09:48:18;;;;;;;23.10;9.40;;;;;;;2.26;42.29;100321.13;24460;1356;3031518;-67
2021/11/24 09:50:48;;;;;;;27.50;9.30;;;;;;;2.16;41.61;100314.87;24396;1357;3026681;-67
2021/11/24 09:53:18;;;;;;;29.50;10.10;;;;;;;2.24;42.07;100316.32;24425;1357;3026680;-72
2021/11/24 09:55:48;;;;;;;28.50;10.10;;;;;;;2.14;42.05;100321.96;24480;1361;3027289;-68
2021/11/24 09:58:18;;;;;;;25.30;9.10;;;;;;;2.24;41.73;100321.34;24443;1356;3028231;-71
2021/11/24 10:00:47;;;;;;;21.00;7.90;;;;;;;2.25;40.87;100321.48;24412;1357;3026778;-72
2021/11/24 10:03:17;;;;;;;22.00;7.50;;;;;;;2.30;39.96;100319.18;24412;1364;3055726;-69
2021/11/24 10:05:47;;;;;;;20.80;7.10;;;;;;;2.41;39.75;100323.18;24410;1359;3028728;-73
2021/11/24 10:08:16;;;;;;;18.50;6.30;;;;;;;2.49;37.75;100324.10;24514;1360;3028299;-70
2021/11/24 10:10:50;;;;;;;;;;;;;;;2.58;38.00;100320.19;24433;1360;3051546;-65
2021/11/24 10:13:19;;;;;;;17.90;6.40;;;;;;;2.62;38.58;100323.92;24435;1356;3028570;-71
2021/11/24 10:16:21;;;;;;;17.10;6.00;;;;;;;2.42;38.34;100321.96;24404;1354;3056387;-73
2021/11/24 10:19:04;;;;;;;15.00;5.60;;;;;;;2.40;38.83;100320.42;24413;1356;3052892;-70
2021/11/24 10:21:34;;;;;;;13.00;5.20;;;;;;;2.49;39.17;100314.79;24425;1360;3055883;-69
2021/11/24 10:24:05;;;;;;;12.90;4.40;;;;;;;2.62;38.04;100316.52;24408;1358;3027468;-74
2021/11/24 10:26:38;;;;;;;10.20;5.00;;;;;;;2.54;37.99;100310.91;24390;1356;3052438;-77
2021/11/24 10:29:09;;;;;;;11.10;4.80;;;;;;;2.66;38.46;100316.79;24445;1357;3028495;-73
2021/11/24 10:31:43;;;;;;;9.10;4.60;;;;;;;2.66;38.09;100323.35;24485;1357;3026577;-72
2021/11/24 10:34:28;;;;;;;13.50;4.60;;;;;;;2.56;38.24;100321.60;24499;1356;3069257;-68
2021/11/24 10:37:08;;;;;;;11.10;5.70;;;;;;;2.58;38.31;100317.25;24474;1357;3049049;-73
2021/11/24 10:39:47;;;;;;;13.00;4.70;;;;;;;2.50;37.89;100317.18;24482;1356;3054599;-73
2021/11/24 10:42:25;;;;;;;7.60;4.20;;;;;;;2.66;37.05;100316.96;24450;1356;3051605;-71
2021/11/24 10:45:10;;;;;;;9.20;4.30;;;;;;;2.92;36.99;100312.08;24453;1360;3059247;-65
2021/11/24 10:47:52;;;;;;;9.10;4.80;;;;;;;2.99;36.88;100314.39;24453;1363;3052386;-67
2021/11/24 10:50:31;;;;;;;12.50;5.20;;;;;;;3.16;38.04;100316.70;24435;1356;3055284;-70
2021/11/24 10:53:01;;;;;;;11.70;4.40;;;;;;;2.99;38.09;100317.33;24404;1363;3054021;-76
2021/11/24 10:55:31;;;;;;;11.70;4.70;;;;;;;3.04;36.58;100316.91;24366;1353;3029399;-69
2021/11/24 10:58:04;;;;;;;9.70;4.30;;;;;;;2.97;36.02;100316.48;24396;1357;3053439;-67
2021/11/24 11:00:38;;;;;;;9.00;3.80;;;;;;;2.94;33.96;100315.14;24465;1363;3026342;-67
2021/11/24 11:03:08;;;;;;;14.20;4.40;;;;;;;2.92;34.17;100318.99;24447;1356;3068621;-69
2021/11/24 11:05:41;;;;;;;8.30;4.50;;;;;;;3.04;33.92;100317.59;24422;1363;3026755;-66
2021/11/24 11:08:16;;;;;;;11.50;5.10;;;;;;;3.11;33.78;100317.83;24461;1357;3027749;-71
2021/11/24 11:10:49;;;;;;;13.00;6.00;;;;;;;3.20;34.15;100319.94;24440;1362;3054563;-71
2021/11/24 11:13:22;;;;;;;13.60;5.60;;;;;;;3.15;34.26;100320.20;24508;1359;3029536;-71
2021/11/24 11:15:54;;;;;;;13.80;5.90;;;;;;;3.18;35.17;100317.71;24422;1356;3027018;-72
2021/11/24 11:18:31;;;;;;;13.40;5.60;;;;;;;3.08;34.37;100317.18;24429;1355;3027312;-67
2021/11/24 11:21:07;;;;;;;13.60;5.60;;;;;;;3.03;34.60;100318.82;24446;1356;3051027;-72